createdAt,value
2022-12-01T00:01:09.669Z,80.79
2022-12-01T00:03:36.423Z,80.83
2022-12-01T00:06:09.689Z,81.11
2022-12-01T00:08:36.473Z,80.81
2022-12-01T00:11:12.034Z,80.55
2022-12-01T00:13:38.683Z,80.51
2022-12-01T00:16:17.481Z,80.75
2022-12-01T00:18:44.171Z,81.09
2022-12-01T00:21:15.192Z,81.13
2022-12-01T00:23:47.245Z,81.05
2022-12-01T00:26:14.783Z,80.85
2022-12-01T00:28:41.287Z,81.00
2022-12-01T00:31:11.895Z,81.51
2022-12-01T00:33:39.495Z,81.32
2022-12-01T00:36:07.257Z,81.33
2022-12-01T00:38:34.644Z,81.49
2022-12-01T00:41:01.584Z,81.46
2022-12-01T00:43:27.978Z,81.29
2022-12-01T00:45:56.231Z,81.40
2022-12-01T00:48:23.651Z,81.50
2022-12-01T00:50:53.847Z,81.30
2022-12-01T00:53:21.093Z,81.06
2022-12-01T00:55:47.523Z,80.64
2022-12-01T00:58:13.890Z,81.21
2022-12-01T01:00:40.325Z,81.19
2022-12-01T01:03:07.623Z,81.02
2022-12-01T01:05:37.960Z,81.35
2022-12-01T01:08:08.450Z,81.49
2022-12-01T01:10:41.581Z,81.46
2022-12-01T01:13:08.014Z,81.32
2022-12-01T01:15:34.802Z,81.34
2022-12-01T01:18:01.926Z,81.55
2022-12-01T01:20:28.538Z,81.57
2022-12-01T01:22:54.921Z,81.91
2022-12-01T01:25:21.474Z,81.61
2022-12-01T01:27:47.883Z,81.78
2022-12-01T01:30:14.687Z,81.96
2022-12-01T01:32:41.045Z,82.17
2022-12-01T01:35:08.270Z,82.73
2022-12-01T01:37:34.750Z,82.40
2022-12-01T01:40:01.117Z,82.33
2022-12-01T01:42:27.473Z,81.84
2022-12-01T01:44:56.452Z,81.11
2022-12-01T01:47:34.645Z,81.87
2022-12-01T01:50:06.449Z,82.51
2022-12-01T01:52:36.509Z,81.58
2022-12-01T01:55:03.499Z,82.37
2022-12-01T01:57:33.261Z,82.74
2022-12-01T02:00:05.070Z,82.67
2022-12-01T02:02:31.734Z,82.45
2022-12-01T02:05:02.301Z,82.88
2022-12-01T02:07:28.791Z,82.69
2022-12-01T02:09:55.774Z,82.92
2022-12-01T02:12:30.886Z,82.86
2022-12-01T02:15:04.916Z,82.49
2022-12-01T02:17:42.035Z,82.26
2022-12-01T02:20:26.996Z,82.67
2022-12-01T02:23:05.854Z,82.58
2022-12-01T02:25:57.652Z,82.02
2022-12-01T02:29:02.133Z,82.29
2022-12-01T02:31:44.783Z,82.44
2022-12-01T02:34:31.119Z,82.20
2022-12-01T02:37:08.453Z,82.01
2022-12-01T02:39:43.993Z,82.07
2022-12-01T02:42:43.290Z,81.85
2022-12-01T02:45:13.941Z,82.06
2022-12-01T02:47:41.818Z,81.81
2022-12-01T02:50:10.121Z,82.31
2022-12-01T02:52:38.760Z,82.56
2022-12-01T02:55:05.465Z,82.75
2022-12-01T02:57:32.264Z,83.03
2022-12-01T03:00:00.044Z,82.73
2022-12-01T03:02:48.832Z,83.16
2022-12-01T03:05:33.676Z,83.64
2022-12-01T03:08:30.884Z,83.52
2022-12-01T03:10:59.448Z,83.53
2022-12-01T03:13:50.666Z,84.12
2022-12-01T03:16:41.653Z,84.01
2022-12-01T03:19:11.416Z,84.15
2022-12-01T03:21:51.964Z,83.64
2022-12-01T03:24:21.808Z,83.71
2022-12-01T03:26:56.792Z,83.86
2022-12-01T03:29:31.272Z,83.85
2022-12-01T03:32:10.699Z,83.69
2022-12-01T03:34:41.141Z,83.87
2022-12-01T03:37:15.209Z,83.44
2022-12-01T03:39:43.709Z,83.72
2022-12-01T03:42:45.423Z,83.91
2022-12-01T03:45:17.749Z,83.87
2022-12-01T03:47:44.469Z,83.45
2022-12-01T03:50:14.012Z,83.76
2022-12-01T03:52:54.522Z,83.57
2022-12-01T03:55:26.376Z,83.66
2022-12-01T03:58:16.888Z,83.43
2022-12-01T04:00:44.945Z,83.42
2022-12-01T04:03:22.347Z,83.22
2022-12-01T04:05:48.869Z,83.33
2022-12-01T04:08:15.300Z,83.09
2022-12-01T04:10:41.769Z,83.43
2022-12-01T04:13:15.939Z,83.49
2022-12-01T04:15:43.249Z,83.60
2022-12-01T04:18:09.623Z,83.70
2022-12-01T04:20:35.997Z,83.50
2022-12-01T04:23:02.342Z,83.34
2022-12-01T04:25:28.737Z,83.07
2022-12-01T04:27:55.195Z,83.18
2022-12-01T04:30:21.541Z,83.37
2022-12-01T04:32:47.935Z,83.22
2022-12-01T04:35:14.291Z,83.52
2022-12-01T04:37:41.017Z,83.59
2022-12-01T04:40:07.939Z,83.50
2022-12-01T04:42:34.514Z,83.45
2022-12-01T04:45:00.956Z,83.63
2022-12-01T04:47:27.438Z,83.77
2022-12-01T04:49:54.404Z,83.90
2022-12-01T04:52:20.789Z,83.92
2022-12-01T04:54:47.164Z,84.18
2022-12-01T04:57:13.523Z,83.85
2022-12-01T04:59:39.889Z,83.53
2022-12-01T05:02:06.374Z,83.63
2022-12-01T05:04:34.067Z,83.88
2022-12-01T05:07:00.403Z,83.86
2022-12-01T05:09:26.769Z,83.65
2022-12-01T05:11:53.273Z,84.06
2022-12-01T05:14:19.612Z,84.30
2022-12-01T05:16:46.096Z,84.18
2022-12-01T05:19:31.246Z,83.56
2022-12-01T05:21:57.611Z,83.81
2022-12-01T05:24:23.981Z,84.20
2022-12-01T05:26:50.499Z,84.10
2022-12-01T05:29:16.953Z,84.46
2022-12-01T05:31:45.223Z,84.69
2022-12-01T05:34:11.708Z,84.14
2022-12-01T05:36:38.061Z,84.21
2022-12-01T05:39:05.088Z,83.75
2022-12-01T05:41:31.477Z,84.08
2022-12-01T05:43:57.979Z,84.29
2022-12-01T05:46:24.416Z,84.12
2022-12-01T05:48:51.003Z,84.11
2022-12-01T05:51:17.384Z,84.15
2022-12-01T05:53:44.124Z,84.11
2022-12-01T05:56:10.948Z,84.14
2022-12-01T05:58:37.567Z,84.02
2022-12-01T06:01:04.031Z,84.02
2022-12-01T06:03:30.399Z,84.04
2022-12-01T06:05:56.839Z,83.92
2022-12-01T06:08:23.368Z,83.62
2022-12-01T06:10:49.773Z,83.15
2022-12-01T06:13:16.115Z,83.60
2022-12-01T06:15:42.547Z,83.68
2022-12-01T06:18:09.350Z,83.59
2022-12-01T06:20:35.864Z,83.32
2022-12-01T06:23:02.635Z,83.35
2022-12-01T06:25:29.015Z,83.40
2022-12-01T06:27:57.333Z,82.96
2022-12-01T06:30:24.115Z,83.17
2022-12-01T06:32:50.532Z,83.12
2022-12-01T06:35:17.045Z,83.32
2022-12-01T06:37:43.387Z,83.35
2022-12-01T06:40:10.686Z,83.40
2022-12-01T06:42:37.062Z,83.37
2022-12-01T06:45:03.638Z,83.11
2022-12-01T06:47:30.037Z,83.16
2022-12-01T06:49:56.418Z,83.46
2022-12-01T06:52:22.755Z,83.39
2022-12-01T06:54:49.213Z,82.97
2022-12-01T06:57:15.889Z,83.02
2022-12-01T06:59:42.632Z,83.23
2022-12-01T07:02:11.750Z,83.14
2022-12-01T07:04:38.169Z,83.24
2022-12-01T07:07:05.876Z,83.12
2022-12-01T07:09:32.265Z,83.12
2022-12-01T07:11:58.642Z,82.78
2022-12-01T07:14:26.716Z,82.79
2022-12-01T07:16:53.477Z,82.59
2022-12-01T07:19:20.339Z,82.52
2022-12-01T07:21:46.751Z,82.33
2022-12-01T07:24:13.249Z,82.74
2022-12-01T07:26:41.066Z,83.07
2022-12-01T07:29:09.160Z,83.06
2022-12-01T07:31:36.806Z,82.89
2022-12-01T07:34:04.275Z,82.51
2022-12-01T07:36:31.006Z,82.69
2022-12-01T07:38:57.510Z,83.19
2022-12-01T07:41:24.417Z,82.98
2022-12-01T07:43:51.243Z,83.06
2022-12-01T07:46:23.181Z,83.52
2022-12-01T07:48:51.506Z,84.31
2022-12-01T07:51:18.388Z,82.40
2022-12-01T07:53:46.279Z,82.11
2022-12-01T07:56:12.803Z,82.07
2022-12-01T07:58:39.412Z,82.47
2022-12-01T08:01:08.306Z,82.86
2022-12-01T08:03:35.479Z,82.47
2022-12-01T08:06:02.955Z,82.37
2022-12-01T08:08:30.489Z,82.26
2022-12-01T08:11:00.669Z,82.75
2022-12-01T08:13:27.147Z,82.86
2022-12-01T08:15:53.777Z,82.13
2022-12-01T08:18:20.266Z,81.55
2022-12-01T08:20:46.633Z,81.03
2022-12-01T08:23:13.089Z,80.74
2022-12-01T08:25:39.444Z,81.13
2022-12-01T08:28:05.879Z,81.59
2022-12-01T08:30:32.313Z,81.46
2022-12-01T08:32:58.918Z,81.75
2022-12-01T08:35:25.767Z,81.57
2022-12-01T08:37:53.496Z,81.77
2022-12-01T08:40:21.099Z,81.80
2022-12-01T08:42:47.712Z,81.62
2022-12-01T08:45:14.330Z,81.52
2022-12-01T08:47:40.727Z,81.73
2022-12-01T08:50:07.571Z,81.78
2022-12-01T08:52:34.842Z,81.03
2022-12-01T08:55:01.619Z,81.31
2022-12-01T08:57:31.215Z,81.22
2022-12-01T08:59:57.665Z,80.93
2022-12-01T09:02:24.742Z,81.08
2022-12-01T09:04:51.416Z,80.98
2022-12-01T09:07:22.977Z,81.27
2022-12-01T09:09:52.894Z,81.56
2022-12-01T09:12:19.740Z,81.34
2022-12-01T09:14:48.217Z,81.18
2022-12-01T09:17:15.217Z,81.38
2022-12-01T09:19:42.437Z,81.87
2022-12-01T09:22:09.601Z,81.65
2022-12-01T09:24:36.203Z,81.54
2022-12-01T09:27:03.385Z,80.67
2022-12-01T09:29:30.431Z,80.76
2022-12-01T09:31:59.680Z,80.69
2022-12-01T09:34:27.088Z,80.93
2022-12-01T09:36:58.226Z,80.66
2022-12-01T09:39:25.320Z,80.10
2022-12-01T09:42:09.061Z,80.59
2022-12-01T09:44:43.819Z,80.86
2022-12-01T09:47:33.777Z,81.93
2022-12-01T09:50:21.827Z,80.75
2022-12-01T09:52:57.864Z,80.69
2022-12-01T09:55:25.690Z,80.86
2022-12-01T09:57:55.540Z,80.80
2022-12-01T10:00:22.993Z,81.09
2022-12-01T10:03:03.104Z,81.17
2022-12-01T10:06:02.988Z,81.36
2022-12-01T10:08:36.755Z,81.20
2022-12-01T10:11:34.404Z,81.47
2022-12-01T10:14:01.344Z,81.44
2022-12-01T10:16:37.482Z,81.58
2022-12-01T10:19:19.677Z,81.47
2022-12-01T10:22:07.396Z,81.79
2022-12-01T10:24:52.492Z,81.58
2022-12-01T10:27:38.977Z,81.56
2022-12-01T10:30:10.026Z,81.50
2022-12-01T10:32:42.845Z,81.51
2022-12-01T10:35:27.198Z,81.23
2022-12-01T10:38:00.961Z,80.88
2022-12-01T10:40:28.563Z,81.13
2022-12-01T10:42:55.634Z,80.74
2022-12-01T10:45:27.903Z,81.09
2022-12-01T10:48:15.086Z,80.88
2022-12-01T10:50:43.736Z,80.51
2022-12-01T10:53:22.260Z,80.39
2022-12-01T10:55:51.408Z,80.80
2022-12-01T10:58:19.333Z,80.64
2022-12-01T11:01:00.571Z,80.73
2022-12-01T11:03:31.486Z,80.79
2022-12-01T11:06:01.670Z,80.81
2022-12-01T11:08:41.508Z,80.61
2022-12-01T11:11:29.880Z,80.72
2022-12-01T11:13:58.877Z,80.88
2022-12-01T11:16:35.579Z,80.85
2022-12-01T11:19:25.110Z,80.75
2022-12-01T11:21:56.620Z,81.24
2022-12-01T11:24:30.640Z,81.30
2022-12-01T11:26:58.890Z,80.62
2022-12-01T11:29:28.064Z,80.82
2022-12-01T11:31:55.039Z,80.51
2022-12-01T11:34:24.252Z,80.35
2022-12-01T11:36:54.898Z,80.69
2022-12-01T11:39:27.171Z,80.62
2022-12-01T11:41:59.422Z,80.44
2022-12-01T11:44:50.197Z,80.42
2022-12-01T11:47:23.080Z,80.04
2022-12-01T11:49:59.751Z,80.89
2022-12-01T11:52:30.508Z,80.80
2022-12-01T11:54:58.284Z,80.84
2022-12-01T11:57:34.069Z,82.19
2022-12-01T12:00:01.865Z,80.58
2022-12-01T12:03:06.631Z,79.73
2022-12-01T12:05:57.676Z,80.00
2022-12-01T12:08:48.171Z,80.18
2022-12-01T12:11:19.082Z,79.80
2022-12-01T12:13:51.702Z,79.82
2022-12-01T12:16:41.459Z,80.03
2022-12-01T12:19:22.432Z,80.38
2022-12-01T12:22:36.977Z,80.42
2022-12-01T12:25:25.283Z,80.33
2022-12-01T12:28:17.066Z,80.06
2022-12-01T12:31:14.813Z,80.11
2022-12-01T12:33:50.137Z,80.24
2022-12-01T12:36:32.271Z,80.06
2022-12-01T12:39:20.284Z,79.82
2022-12-01T12:41:55.803Z,79.57
2022-12-01T12:44:47.059Z,80.30
2022-12-01T12:47:25.560Z,80.08
2022-12-01T12:50:00.951Z,80.12
2022-12-01T12:52:35.373Z,79.96
2022-12-01T12:55:26.208Z,79.84
2022-12-01T12:58:06.600Z,79.83
2022-12-01T13:00:43.373Z,79.57
2022-12-01T13:03:19.735Z,79.30
2022-12-01T13:05:57.570Z,79.64
2022-12-01T13:08:34.034Z,79.61
2022-12-01T13:11:15.996Z,79.21
2022-12-01T13:13:54.341Z,79.30
2022-12-01T13:16:58.992Z,79.71
2022-12-01T13:19:37.158Z,79.45
2022-12-01T13:22:05.858Z,79.26
2022-12-01T13:24:32.614Z,79.33
2022-12-01T13:27:05.156Z,79.64
2022-12-01T13:29:43.900Z,79.81
2022-12-01T13:32:28.522Z,79.61
2022-12-01T13:34:55.269Z,79.80
2022-12-01T13:37:33.571Z,79.40
2022-12-01T13:40:20.296Z,79.80
2022-12-01T13:43:14.575Z,79.68
2022-12-01T13:45:41.436Z,79.59
2022-12-01T13:48:28.440Z,79.74
2022-12-01T13:50:56.471Z,79.13
2022-12-01T13:53:23.044Z,79.48
2022-12-01T13:55:57.617Z,79.22
2022-12-01T13:58:45.992Z,79.01
2022-12-01T14:01:21.831Z,79.27
2022-12-01T14:03:51.601Z,81.57
2022-12-01T14:06:51.394Z,79.37
2022-12-01T14:09:28.172Z,79.07
2022-12-01T14:12:04.152Z,79.12
2022-12-01T14:14:39.963Z,79.17
2022-12-01T14:17:21.736Z,79.13
2022-12-01T14:19:53.568Z,79.65
2022-12-01T14:22:41.892Z,79.22
2022-12-01T14:25:34.875Z,79.63
2022-12-01T14:28:03.295Z,79.91
2022-12-01T14:30:50.305Z,79.98
2022-12-01T14:33:43.205Z,79.80
2022-12-01T14:36:18.424Z,79.79
2022-12-01T14:38:47.127Z,79.87
2022-12-01T14:41:36.217Z,80.23
2022-12-01T14:44:21.765Z,80.13
2022-12-01T14:47:09.829Z,79.76
2022-12-01T14:49:45.246Z,79.86
2022-12-01T14:52:40.723Z,79.66
2022-12-01T14:55:23.682Z,80.11
2022-12-01T14:57:52.617Z,80.22
2022-12-01T15:00:25.094Z,80.19
2022-12-01T15:03:01.098Z,80.13
2022-12-01T15:05:30.189Z,82.04
2022-12-01T15:11:20.755Z,80.00
2022-12-01T15:13:52.581Z,80.03
2022-12-01T15:16:22.048Z,80.14
2022-12-01T15:18:49.565Z,80.10
2022-12-01T15:21:26.436Z,80.00
2022-12-01T15:23:58.933Z,80.02
2022-12-01T15:26:31.868Z,80.05
2022-12-01T15:29:19.043Z,79.94
2022-12-01T15:31:50.141Z,79.85
2022-12-01T15:34:27.048Z,79.06
2022-12-01T15:36:54.366Z,79.69
2022-12-01T15:39:33.320Z,79.74
2022-12-01T15:42:00.505Z,79.90
2022-12-01T15:44:35.993Z,79.23
2022-12-01T15:47:44.203Z,79.39
2022-12-01T15:50:33.316Z,79.85
2022-12-01T15:53:22.175Z,79.75
2022-12-01T15:55:55.549Z,78.60
2022-12-01T15:58:30.147Z,78.88
2022-12-01T16:01:02.032Z,79.25
2022-12-01T16:03:29.095Z,79.31
2022-12-01T16:05:56.168Z,78.79
2022-12-01T16:08:26.459Z,78.94
2022-12-01T16:11:13.156Z,79.24
2022-12-01T16:14:20.612Z,79.12
2022-12-01T16:16:48.503Z,79.69
2022-12-01T16:19:17.995Z,79.28
2022-12-01T16:21:47.442Z,79.47
2022-12-01T16:24:28.009Z,79.47
2022-12-01T16:26:56.610Z,79.44
2022-12-01T16:29:24.814Z,79.47
2022-12-01T16:32:18.882Z,78.91
2022-12-01T16:34:46.346Z,79.28
2022-12-01T16:37:13.769Z,79.45
2022-12-01T16:39:40.144Z,78.96
2022-12-01T16:42:06.697Z,78.93
2022-12-01T16:44:33.153Z,78.67
2022-12-01T16:46:59.560Z,78.77
2022-12-01T16:49:25.914Z,78.92
2022-12-01T16:51:56.797Z,78.70
2022-12-01T16:54:23.867Z,78.48
2022-12-01T16:56:52.944Z,79.25
2022-12-01T16:59:20.046Z,78.96
2022-12-01T17:01:46.499Z,79.29
2022-12-01T17:04:13.106Z,78.88
2022-12-01T17:06:39.565Z,79.41
2022-12-01T17:09:06.028Z,79.30
2022-12-01T17:11:32.844Z,79.26
2022-12-01T17:13:59.233Z,79.44
2022-12-01T17:16:25.739Z,79.33
2022-12-01T17:18:52.288Z,79.34
2022-12-01T17:21:18.986Z,79.02
2022-12-01T17:23:45.376Z,80.62
2022-12-01T17:26:15.712Z,79.33
2022-12-01T17:28:42.242Z,78.51
2022-12-01T17:31:09.384Z,78.73
2022-12-01T17:33:36.271Z,78.98
2022-12-01T17:36:06.492Z,78.84
2022-12-01T17:38:38.289Z,78.70
2022-12-01T17:41:07.888Z,78.88
2022-12-01T17:43:35.584Z,79.24
2022-12-01T17:46:02.802Z,78.70
2022-12-01T17:48:29.515Z,78.92
2022-12-01T17:50:56.051Z,79.29
2022-12-01T17:53:22.661Z,79.38
2022-12-01T17:55:49.089Z,78.96
2022-12-01T17:58:18.012Z,78.75
2022-12-01T18:00:44.376Z,78.75
2022-12-01T18:03:10.773Z,78.91
2022-12-01T18:05:37.207Z,78.91
2022-12-01T18:08:03.840Z,78.84
2022-12-01T18:10:30.247Z,78.90
2022-12-01T18:12:56.641Z,79.10
2022-12-01T18:15:25.866Z,79.13
2022-12-01T18:17:54.791Z,78.38
2022-12-01T18:20:21.357Z,78.97
2022-12-01T18:22:48.337Z,79.17
2022-12-01T18:25:14.813Z,79.18
2022-12-01T18:27:41.455Z,79.34
2022-12-01T18:30:08.415Z,78.56
2022-12-01T18:32:34.812Z,78.64
2022-12-01T18:35:01.224Z,78.72
2022-12-01T18:37:27.672Z,79.02
2022-12-01T18:39:57.397Z,79.26
2022-12-01T18:42:24.365Z,79.52
2022-12-01T18:44:51.179Z,79.39
2022-12-01T18:47:17.823Z,79.57
2022-12-01T18:49:44.175Z,78.83
2022-12-01T18:52:10.592Z,79.25
2022-12-01T18:54:37.009Z,79.32
2022-12-01T18:57:03.505Z,78.86
2022-12-01T18:59:30.022Z,78.79
2022-12-01T19:01:56.523Z,79.39
2022-12-01T19:04:23.010Z,78.94
2022-12-01T19:06:49.437Z,78.51
2022-12-01T19:09:16.468Z,78.44
2022-12-01T19:11:43.260Z,79.17
2022-12-01T19:14:16.331Z,79.61
2022-12-01T19:16:43.098Z,79.10
2022-12-01T19:19:10.119Z,79.32
2022-12-01T19:21:36.892Z,79.09
2022-12-01T19:24:03.371Z,79.22
2022-12-01T19:26:29.708Z,78.78
2022-12-01T19:28:56.211Z,78.67
2022-12-01T19:31:24.222Z,78.47
2022-12-01T19:33:52.585Z,78.66
2022-12-01T19:36:21.798Z,78.70
2022-12-01T19:38:48.579Z,79.06
2022-12-01T19:41:15.505Z,79.27
2022-12-01T19:43:42.493Z,79.64
2022-12-01T19:46:20.341Z,79.67
2022-12-01T19:48:48.041Z,79.53
2022-12-01T19:51:23.978Z,79.39
2022-12-01T19:53:50.645Z,79.05
2022-12-01T19:56:17.683Z,79.19
2022-12-01T19:58:44.324Z,79.37
2022-12-01T20:01:13.022Z,79.95
2022-12-01T20:03:40.648Z,79.73
2022-12-01T20:06:10.137Z,79.67
2022-12-01T20:08:36.784Z,79.23
2022-12-01T20:11:04.533Z,79.38
2022-12-01T20:13:32.595Z,79.39
2022-12-01T20:16:06.596Z,79.56
2022-12-01T20:18:33.451Z,79.51
2022-12-01T20:21:07.818Z,79.28
2022-12-01T20:23:35.532Z,79.43
2022-12-01T20:26:04.005Z,79.32
2022-12-01T20:28:31.571Z,79.67
2022-12-01T20:30:58.249Z,79.82
2022-12-01T20:33:26.164Z,79.24
2022-12-01T20:35:52.695Z,79.26
2022-12-01T20:38:24.296Z,78.38
2022-12-01T20:40:53.777Z,78.92
2022-12-01T20:43:20.239Z,79.38
2022-12-01T20:45:46.820Z,79.56
2022-12-01T20:48:13.621Z,78.99
2022-12-01T20:50:40.232Z,78.96
2022-12-01T20:53:06.884Z,79.66
2022-12-01T20:55:35.729Z,79.70
2022-12-01T20:58:02.863Z,79.78
2022-12-01T21:00:30.328Z,79.67
2022-12-01T21:02:59.930Z,79.51
2022-12-01T21:05:27.300Z,79.39
2022-12-01T21:07:54.707Z,79.19
2022-12-01T21:10:21.302Z,79.18
2022-12-01T21:13:10.353Z,78.27
2022-12-01T21:15:50.883Z,79.11
2022-12-01T21:18:29.092Z,78.57
2022-12-01T21:21:03.599Z,79.17
2022-12-01T21:23:30.271Z,79.33
2022-12-01T21:25:57.278Z,79.41
2022-12-01T21:28:25.379Z,78.77
2022-12-01T21:31:14.481Z,79.11
2022-12-01T21:33:41.920Z,78.80
2022-12-01T21:36:19.776Z,78.94
2022-12-01T21:38:53.779Z,80.07
2022-12-01T21:41:27.593Z,80.93
2022-12-01T21:44:16.074Z,81.89
2022-12-01T21:46:42.801Z,81.61
2022-12-01T21:49:19.669Z,81.72
2022-12-01T21:51:47.636Z,81.56
2022-12-01T21:54:20.587Z,81.84
2022-12-01T21:56:52.177Z,81.72
2022-12-01T21:59:23.091Z,82.49
2022-12-01T22:01:54.019Z,82.50
2022-12-01T22:04:25.847Z,82.95
2022-12-01T22:06:57.649Z,83.08
2022-12-01T22:09:29.297Z,82.74
2022-12-01T22:11:58.525Z,82.24
2022-12-01T22:14:32.409Z,82.78
2022-12-01T22:17:11.277Z,83.06
2022-12-01T22:19:39.980Z,83.15
2022-12-01T22:22:09.719Z,82.72
2022-12-01T22:24:46.259Z,82.86
2022-12-01T22:27:12.967Z,83.17
2022-12-01T22:29:43.272Z,83.24
2022-12-01T22:32:12.725Z,82.89
2022-12-01T22:34:40.662Z,83.12
2022-12-01T22:37:17.289Z,83.00
2022-12-01T22:39:46.299Z,82.61
2022-12-01T22:42:20.557Z,82.07
2022-12-01T22:44:47.027Z,82.07
2022-12-01T22:47:15.629Z,82.25
2022-12-01T22:49:42.541Z,82.36
2022-12-01T22:52:28.304Z,82.40
2022-12-01T22:54:55.007Z,81.51
2022-12-01T22:57:34.861Z,81.35
2022-12-01T23:00:14.022Z,81.97
2022-12-01T23:02:40.464Z,81.65
2022-12-01T23:05:33.154Z,82.14
2022-12-01T23:08:00.228Z,81.67
2022-12-01T23:10:33.651Z,81.43
2022-12-01T23:13:08.618Z,80.94
2022-12-01T23:15:46.141Z,81.47
2022-12-01T23:18:23.470Z,81.66
2022-12-01T23:20:53.178Z,81.11
2022-12-01T23:23:21.796Z,81.08
2022-12-01T23:25:50.414Z,81.11
2022-12-01T23:28:16.930Z,81.78
2022-12-01T23:30:45.092Z,81.85
2022-12-01T23:33:26.159Z,81.67
2022-12-01T23:35:55.438Z,81.95
2022-12-01T23:38:28.611Z,82.29
2022-12-01T23:40:58.751Z,82.21
2022-12-01T23:43:32.958Z,82.11
2022-12-01T23:46:05.902Z,81.92
2022-12-01T23:48:44.930Z,82.37
2022-12-01T23:51:19.783Z,82.54
2022-12-01T23:53:46.827Z,81.96
2022-12-01T23:56:23.250Z,82.45
2022-12-01T23:58:51.078Z,82.99
